Time,TemperatureF,DewpointF,PressureIn,WindDirection,WindDirectionDegrees,WindSpeedMPH,WindSpeedGustMPH,Humidity,HourlyPrecipIn,Conditions,Clouds,dailyrainin,SoftwareType,DateUTC
2013-07-26 00:02:00,71.4,63.8,30.00,North,1,0.0,0.0,77,0.00,CLR,,0.00,WeatherDisplay:10.37,2013-07-26 05:02:00,
2013-07-26 00:07:00,71.1,63.5,30.00,North,1,0.0,0.0,77,0.00,CLR,,0.00,WeatherDisplay:10.37,2013-07-26 05:07:00,
2013-07-26 00:12:00,71.1,63.5,30.00,North,1,0.0,0.0,77,0.00,CLR,,0.00,WeatherDisplay:10.37,2013-07-26 05:12:00,
2013-07-26 00:17:00,70.9,63.3,29.99,North,1,0.0,0.0,77,0.00,CLR,,0.00,WeatherDisplay:10.37,2013-07-26 05:17:00,
2013-07-26 00:22:00,70.7,63.5,29.99,North,1,0.0,0.0,78,0.00,CLR,,0.00,WeatherDisplay:10.37,2013-07-26 05:22:00,
2013-07-26 00:27:00,70.5,63.7,29.98,North,1,0.0,0.0,79,0.00,CLR,,0.00,WeatherDisplay:10.37,2013-07-26 05:27:00,
2013-07-26 00:32:00,70.2,63.3,29.99,North,1,0.0,0.0,79,0.00,CLR,,0.00,WeatherDisplay:10.37,2013-07-26 05:32:00,
2013-07-26 00:37:00,70.2,63.3,29.99,North,1,0.0,0.0,79,0.00,CLR,,0.00,WeatherDisplay:10.37,2013-07-26 05:37:00,
2013-07-26 00:42:00,70.2,63.3,29.99,North,1,0.0,0.0,79,0.00,CLR,,0.00,WeatherDisplay:10.37,2013-07-26 05:42:00,
2013-07-26 00:47:00,70.0,63.2,29.99,North,1,0.0,0.0,79,0.00,CLR,,0.00,WeatherDisplay:10.37,2013-07-26 05:47:00,
2013-07-26 00:52:00,70.0,63.2,29.99,North,1,0.0,0.0,79,0.00,CLR,,0.00,WeatherDisplay:10.37,2013-07-26 05:52:00,
2013-07-26 00:57:00,70.0,63.2,29.99,North,1,0.0,0.0,79,0.00,CLR,,0.00,WeatherDisplay:10.37,2013-07-26 05:57:00,
2013-07-26 01:02:00,70.0,63.5,29.99,North,1,0.0,0.0,80,0.00,CLR,,0.00,WeatherDisplay:10.37,2013-07-26 06:02:00,
2013-07-26 01:07:00,70.0,63.5,29.99,North,1,0.0,0.0,80,0.00,CLR,,0.00,WeatherDisplay:10.37,2013-07-26 06:07:00,
2013-07-26 01:12:00,70.0,63.2,29.99,North,1,0.0,0.0,79,0.00,CLR,,0.00,WeatherDisplay:10.37,2013-07-26 06:12:00,
2013-07-26 01:17:00,70.2,63.3,29.99,North,1,0.0,0.0,79,0.00,CLR,,0.00,WeatherDisplay:10.37,2013-07-26 06:17:00,
2013-07-26 01:22:00,70.2,63.3,30.00,North,1,0.0,0.0,79,0.00,CLR,,0.00,WeatherDisplay:10.37,2013-07-26 06:22:00,
2013-07-26 01:27:00,70.2,63.3,30.00,North,1,0.0,0.0,79,0.00,CLR,,0.00,WeatherDisplay:10.37,2013-07-26 06:27:00,
2013-07-26 01:32:00,70.2,63.3,30.00,North,1,0.0,0.0,79,0.00,CLR,,0.00,WeatherDisplay:10.37,2013-07-26 06:32:00,
2013-07-26 01:37:00,70.2,63.3,30.00,North,1,0.0,0.0,79,0.00,CLR,,0.00,WeatherDisplay:10.37,2013-07-26 06:37:00,
2013-07-26 01:42:00,70.2,63.3,30.00,North,1,0.0,0.0,79,0.00,CLR,,0.00,WeatherDisplay:10.37,2013-07-26 06:42:00,
2013-07-26 01:47:00,70.2,63.3,29.99,North,1,0.0,0.0,79,0.00,CLR,,0.00,WeatherDisplay:10.37,2013-07-26 06:47:00,
2013-07-26 01:52:00,70.2,63.3,29.99,North,1,0.0,0.0,79,0.00,CLR,,0.00,WeatherDisplay:10.37,2013-07-26 06:52:00,
2013-07-26 01:57:00,70.2,63.3,30.00,North,1,0.0,0.0,79,0.00,CLR,,0.00,WeatherDisplay:10.37,2013-07-26 06:57:00,
2013-07-26 02:02:00,70.2,63.3,29.99,North,1,0.0,0.0,79,0.00,CLR,,0.00,WeatherDisplay:10.37,2013-07-26 07:02:00,
2013-07-26 02:07:00,70.2,63.3,29.99,North,1,0.0,0.0,79,0.00,CLR,,0.00,WeatherDisplay:10.37,2013-07-26 07:07:00,
2013-07-26 02:12:00,70.2,63.3,29.99,North,1,0.0,0.0,79,0.00,CLR,,0.00,WeatherDisplay:10.37,2013-07-26 07:12:00,
2013-07-26 02:17:00,70.2,63.3,29.99,North,1,0.0,0.0,79,0.00,CLR,,0.00,WeatherDisplay:10.37,2013-07-26 07:17:00,
2013-07-26 02:22:00,70.2,63.3,29.98,North,1,0.0,0.0,79,0.00,CLR,,0.00,WeatherDisplay:10.37,2013-07-26 07:22:00,
2013-07-26 02:27:00,70.2,63.3,29.98,North,1,0.0,0.0,79,0.00,CLR,,0.00,WeatherDisplay:10.37,2013-07-26 07:27:00,
2013-07-26 02:32:00,70.2,63.3,29.98,North,1,0.0,0.0,79,0.00,CLR,,0.00,WeatherDisplay:10.37,2013-07-26 07:32:00,
2013-07-26 02:37:00,70.2,63.3,29.98,North,1,0.0,0.0,79,0.00,CLR,,0.00,WeatherDisplay:10.37,2013-07-26 07:37:00,
2013-07-26 02:42:00,70.3,63.5,29.98,North,1,0.0,0.0,79,0.00,CLR,,0.00,WeatherDisplay:10.37,2013-07-26 07:42:00,
2013-07-26 02:47:00,70.3,63.5,29.98,North,1,0.0,0.0,79,0.00,CLR,,0.00,WeatherDisplay:10.37,2013-07-26 07:47:00,
2013-07-26 02:52:00,70.2,63.3,29.97,North,1,0.0,0.0,79,0.00,CLR,,0.00,WeatherDisplay:10.37,2013-07-26 07:52:00,
2013-07-26 02:57:00,70.2,63.3,29.97,North,1,0.0,0.0,79,0.00,CLR,,0.00,WeatherDisplay:10.37,2013-07-26 07:57:00,
2013-07-26 03:02:00,70.2,63.3,29.96,North,1,0.0,0.0,79,0.00,CLR,,0.00,WeatherDisplay:10.37,2013-07-26 08:02:00,
2013-07-26 03:07:00,70.3,63.9,29.96,North,1,0.0,0.0,80,0.00,CLR,,0.00,WeatherDisplay:10.37,2013-07-26 08:07:00,
2013-07-26 03:12:00,70.3,63.9,29.96,North,1,0.0,0.0,80,0.00,CLR,,0.00,WeatherDisplay:10.37,2013-07-26 08:12:00,
2013-07-26 03:17:00,70.2,63.7,29.96,North,1,0.0,0.0,80,0.00,CLR,,0.00,WeatherDisplay:10.37,2013-07-26 08:17:00,
2013-07-26 03:22:00,70.2,63.7,29.96,North,1,0.0,0.0,80,0.00,CLR,,0.00,WeatherDisplay:10.37,2013-07-26 08:22:00,
2013-07-26 03:27:00,70.2,63.7,29.96,North,1,0.0,0.0,80,0.00,CLR,,0.00,WeatherDisplay:10.37,2013-07-26 08:27:00,
2013-07-26 03:32:00,70.2,63.7,29.97,North,1,0.0,0.0,80,0.00,CLR,,0.00,WeatherDisplay:10.37,2013-07-26 08:32:00,
2013-07-26 03:37:00,70.2,63.7,29.97,North,1,0.0,0.0,80,0.00,CLR,,0.00,WeatherDisplay:10.37,2013-07-26 08:37:00,
2013-07-26 03:42:00,70.2,63.7,29.97,North,1,0.0,0.0,80,0.00,CLR,,0.00,WeatherDisplay:10.37,2013-07-26 08:42:00,
2013-07-26 03:47:00,70.0,63.9,29.98,North,1,0.0,0.0,81,0.00,CLR,,0.00,WeatherDisplay:10.37,2013-07-26 08:47:00,
2013-07-26 03:52:00,70.2,64.1,29.98,North,1,0.0,0.0,81,0.00,CLR,,0.00,WeatherDisplay:10.37,2013-07-26 08:52:00,
2013-07-26 03:57:00,70.2,64.1,29.98,North,1,0.0,0.0,81,0.00,CLR,,0.00,WeatherDisplay:10.37,2013-07-26 08:57:00,
2013-07-26 04:02:00,70.2,64.1,29.98,North,1,0.0,0.0,81,0.00,CLR,,0.00,WeatherDisplay:10.37,2013-07-26 09:02:00,
2013-07-26 04:07:00,70.0,63.9,29.98,North,1,0.0,0.0,81,0.00,CLR,,0.00,WeatherDisplay:10.37,2013-07-26 09:07:00,
2013-07-26 04:12:00,70.0,63.9,29.98,North,1,0.0,0.0,81,0.00,CLR,,0.00,WeatherDisplay:10.37,2013-07-26 09:12:00,
2013-07-26 04:17:00,70.2,64.1,29.98,North,1,0.0,0.0,81,0.00,CLR,,0.00,WeatherDisplay:10.37,2013-07-26 09:17:00,
2013-07-26 04:22:00,70.2,64.1,29.98,North,1,0.0,0.0,81,0.00,CLR,,0.00,WeatherDisplay:10.37,2013-07-26 09:22:00,
2013-07-26 04:27:00,70.0,63.9,29.98,North,1,0.0,0.0,81,0.00,CLR,,0.00,WeatherDisplay:10.37,2013-07-26 09:27:00,
2013-07-26 04:32:00,69.6,63.5,29.99,North,1,0.0,0.0,81,0.00,CLR,,0.00,WeatherDisplay:10.37,2013-07-26 09:32:00,
2013-07-26 04:37:00,69.8,63.7,29.99,North,1,0.0,0.0,81,0.00,CLR,,0.00,WeatherDisplay:10.37,2013-07-26 09:37:00,
2013-07-26 04:42:00,70.0,63.9,29.99,North,1,0.0,0.0,81,0.00,CLR,,0.00,WeatherDisplay:10.37,2013-07-26 09:42:00,
2013-07-26 04:47:00,69.8,63.7,29.99,North,1,0.0,0.0,81,0.00,CLR,,0.00,WeatherDisplay:10.37,2013-07-26 09:47:00,
2013-07-26 04:52:00,69.6,63.5,30.00,North,1,0.0,0.0,81,0.00,CLR,,0.00,WeatherDisplay:10.37,2013-07-26 09:52:00,
2013-07-26 04:57:00,69.3,63.2,30.00,North,1,0.0,0.0,81,0.00,CLR,,0.00,WeatherDisplay:10.37,2013-07-26 09:57:00,
2013-07-26 05:02:00,69.3,63.2,30.00,North,1,0.0,0.0,81,0.00,CLR,,0.00,WeatherDisplay:10.37,2013-07-26 10:02:00,
2013-07-26 05:07:00,69.3,63.2,30.00,North,1,0.0,0.0,81,0.00,CLR,,0.00,WeatherDisplay:10.37,2013-07-26 10:07:00,
2013-07-26 05:12:00,68.9,62.8,30.00,North,1,0.0,0.0,81,0.00,CLR,,0.00,WeatherDisplay:10.37,2013-07-26 10:12:00,
2013-07-26 05:17:00,68.7,62.7,30.00,North,1,0.0,0.0,81,0.00,CLR,,0.00,WeatherDisplay:10.37,2013-07-26 10:17:00,
2013-07-26 05:22:00,68.7,62.7,29.99,North,1,0.0,0.0,81,0.00,CLR,,0.00,WeatherDisplay:10.37,2013-07-26 10:22:00,
2013-07-26 05:27:00,68.7,62.7,29.99,North,1,0.0,0.0,81,0.00,CLR,,0.00,WeatherDisplay:10.37,2013-07-26 10:27:00,
2013-07-26 05:32:00,68.5,62.5,30.00,North,1,0.0,0.0,81,0.00,CLR,,0.00,WeatherDisplay:10.37,2013-07-26 10:32:00,
2013-07-26 05:37:00,68.4,62.3,29.99,North,1,0.0,0.0,81,0.00,CLR,,0.00,WeatherDisplay:10.37,2013-07-26 10:37:00,
2013-07-26 05:42:00,68.5,62.5,30.00,North,1,0.0,0.0,81,0.00,CLR,,0.00,WeatherDisplay:10.37,2013-07-26 10:42:00,
2013-07-26 05:47:00,69.1,63.0,29.99,North,1,0.0,0.0,81,0.00,CLR,,0.00,WeatherDisplay:10.37,2013-07-26 10:47:00,
2013-07-26 05:52:00,69.1,62.6,29.99,North,1,0.0,0.0,80,0.00,CLR,,0.00,WeatherDisplay:10.37,2013-07-26 10:52:00,
2013-07-26 05:57:00,68.7,62.3,30.00,North,1,0.0,0.0,80,0.00,CLR,,0.00,WeatherDisplay:10.37,2013-07-26 10:57:00,
2013-07-26 06:02:00,68.7,62.3,30.00,North,1,0.0,0.0,80,0.00,CLR,,0.00,WeatherDisplay:10.37,2013-07-26 11:02:00,
2013-07-26 06:07:00,68.7,62.3,30.00,North,1,0.0,0.0,80,0.00,CLR,,0.00,WeatherDisplay:10.37,2013-07-26 11:07:00,
2013-07-26 06:12:00,68.4,61.9,30.00,North,1,0.0,0.0,80,0.00,CLR,,0.00,WeatherDisplay:10.37,2013-07-26 11:12:00,
2013-07-26 06:17:00,68.2,61.8,30.00,North,1,0.0,0.0,80,0.00,CLR,,0.00,WeatherDisplay:10.37,2013-07-26 11:17:00,
2013-07-26 06:22:00,68.0,61.9,29.99,North,1,0.0,0.0,81,0.00,CLR,,0.00,WeatherDisplay:10.37,2013-07-26 11:22:00,
2013-07-26 06:27:00,68.0,61.9,30.00,North,1,0.0,0.0,81,0.00,CLR,,0.00,WeatherDisplay:10.37,2013-07-26 11:27:00,
2013-07-26 06:32:00,68.0,61.6,30.00,North,1,0.0,0.0,80,0.00,CLR,,0.00,WeatherDisplay:10.37,2013-07-26 11:32:00,
2013-07-26 06:37:00,67.8,61.8,29.99,North,1,0.0,0.0,81,0.00,CLR,,0.00,WeatherDisplay:10.37,2013-07-26 11:37:00,
2013-07-26 06:42:00,67.8,61.8,29.99,North,1,0.0,0.0,81,0.00,CLR,,0.00,WeatherDisplay:10.37,2013-07-26 11:42:00,
2013-07-26 06:47:00,67.8,61.8,29.99,North,1,0.0,0.0,81,0.00,CLR,,0.00,WeatherDisplay:10.37,2013-07-26 11:47:00,
2013-07-26 06:52:00,68.4,61.9,29.99,North,1,0.0,0.0,80,0.00,CLR,,0.00,WeatherDisplay:10.37,2013-07-26 11:52:00,
2013-07-26 06:57:00,68.4,61.9,29.99,North,1,0.0,0.0,80,0.00,CLR,,0.00,WeatherDisplay:10.37,2013-07-26 11:57:00,
2013-07-26 07:02:00,68.4,61.9,30.00,North,1,0.0,0.0,80,0.00,CLR,,0.00,WeatherDisplay:10.37,2013-07-26 12:02:00,
2013-07-26 07:07:00,68.2,61.8,30.00,North,1,0.0,0.0,80,0.00,CLR,,0.00,WeatherDisplay:10.37,2013-07-26 12:07:00,
2013-07-26 07:12:00,68.4,61.9,30.00,North,1,0.0,0.0,80,0.00,CLR,,0.00,WeatherDisplay:10.37,2013-07-26 12:12:00,
2013-07-26 07:17:00,68.4,61.9,30.00,North,1,0.0,0.0,80,0.00,CLR,,0.00,WeatherDisplay:10.37,2013-07-26 12:17:00,
2013-07-26 07:22:00,68.4,61.9,30.00,North,1,0.0,0.0,80,0.00,CLR,,0.00,WeatherDisplay:10.37,2013-07-26 12:22:00,
2013-07-26 07:27:00,68.4,61.9,30.00,North,1,0.0,0.0,80,0.00,CLR,,0.00,WeatherDisplay:10.37,2013-07-26 12:27:00,
2013-07-26 07:32:00,68.4,61.9,30.00,North,1,0.0,0.0,80,0.00,CLR,,0.00,WeatherDisplay:10.37,2013-07-26 12:32:00,
2013-07-26 07:37:00,68.7,62.3,30.00,North,1,0.0,0.0,80,0.00,CLR,,0.00,WeatherDisplay:10.37,2013-07-26 12:37:00,
2013-07-26 07:42:00,68.7,62.3,30.00,North,1,0.0,0.0,80,0.00,CLR,,0.00,WeatherDisplay:10.37,2013-07-26 12:42:00,
2013-07-26 07:47:00,68.9,62.5,30.01,North,1,0.0,0.0,80,0.00,CLR,,0.00,WeatherDisplay:10.37,2013-07-26 12:47:00,
2013-07-26 07:52:00,69.1,62.6,30.01,North,1,0.0,0.0,80,0.00,CLR,,0.00,WeatherDisplay:10.37,2013-07-26 12:52:00,
2013-07-26 07:57:00,69.1,62.6,30.01,North,1,0.0,0.0,80,0.00,CLR,,0.00,WeatherDisplay:10.37,2013-07-26 12:57:00,
2013-07-26 08:02:00,69.3,62.8,30.01,North,1,0.0,0.0,80,0.00,CLR,,0.00,WeatherDisplay:10.37,2013-07-26 13:02:00,
2013-07-26 08:07:00,69.3,62.8,30.01,North,1,0.0,0.0,80,0.00,CLR,,0.00,WeatherDisplay:10.37,2013-07-26 13:07:00,
2013-07-26 08:12:00,69.3,62.8,30.01,North,1,0.0,0.0,80,0.00,CLR,,0.00,WeatherDisplay:10.37,2013-07-26 13:12:00,
2013-07-26 08:17:00,69.4,63.0,30.01,North,1,0.0,0.0,80,0.00,CLR,,0.00,WeatherDisplay:10.37,2013-07-26 13:17:00,
2013-07-26 08:22:00,69.6,63.2,30.01,North,1,0.0,0.0,80,0.00,CLR,,0.00,WeatherDisplay:10.37,2013-07-26 13:22:00,
2013-07-26 08:27:00,70.0,63.2,30.01,North,1,0.0,0.0,79,0.00,CLR,,0.00,WeatherDisplay:10.37,2013-07-26 13:27:00,
2013-07-26 08:32:00,70.0,63.2,30.01,North,1,0.0,0.0,79,0.00,CLR,,0.00,WeatherDisplay:10.37,2013-07-26 13:32:00,
2013-07-26 08:37:00,70.0,63.2,30.01,North,1,0.0,0.0,79,0.00,CLR,,0.00,WeatherDisplay:10.37,2013-07-26 13:37:00,
2013-07-26 08:42:00,70.0,63.2,30.01,North,1,0.0,0.0,79,0.00,CLR,,0.00,WeatherDisplay:10.37,2013-07-26 13:42:00,
2013-07-26 08:47:00,70.2,63.3,30.01,North,1,0.0,0.0,79,0.00,CLR,,0.00,WeatherDisplay:10.37,2013-07-26 13:47:00,
2013-07-26 08:52:00,70.0,63.2,30.02,North,1,0.0,0.0,79,0.00,CLR,,0.00,WeatherDisplay:10.37,2013-07-26 13:52:00,
2013-07-26 08:57:00,70.0,63.2,30.01,North,1,0.0,0.0,79,0.00,CLR,,0.00,WeatherDisplay:10.37,2013-07-26 13:57:00,
2013-07-26 09:02:00,70.2,63.3,30.01,North,1,0.0,0.0,79,0.00,CLR,,0.00,WeatherDisplay:10.37,2013-07-26 14:02:00,
2013-07-26 09:08:00,70.5,63.7,30.01,North,1,0.0,0.0,79,0.00,CLR,,0.00,WeatherDisplay:10.37,2013-07-26 14:08:00,
2013-07-26 09:13:00,70.9,64.0,30.01,North,1,0.0,0.0,79,0.00,CLR,,0.00,WeatherDisplay:10.37,2013-07-26 14:13:00,
2013-07-26 09:18:00,71.4,64.9,30.02,North,1,0.0,0.0,80,0.00,CLR,,0.00,WeatherDisplay:10.37,2013-07-26 14:18:00,
2013-07-26 09:23:00,72.5,65.6,30.02,North,1,0.0,0.0,79,0.00,CLR,,0.00,WeatherDisplay:10.37,2013-07-26 14:23:00,
2013-07-26 09:28:00,72.7,65.4,30.02,North,1,0.0,0.0,78,0.00,CLR,,0.00,WeatherDisplay:10.37,2013-07-26 14:28:00,
2013-07-26 09:33:00,73.2,65.6,30.02,North,1,0.0,0.0,77,0.00,CLR,,0.00,WeatherDisplay:10.37,2013-07-26 14:33:00,
2013-07-26 09:38:00,73.2,65.6,30.02,North,1,0.0,0.0,77,0.00,CLR,,0.00,WeatherDisplay:10.37,2013-07-26 14:38:00,
2013-07-26 09:43:00,73.6,65.5,30.02,North,1,0.0,0.0,76,0.00,CLR,,0.00,WeatherDisplay:10.37,2013-07-26 14:43:00,
2013-07-26 09:48:00,73.6,65.2,30.02,North,1,0.0,0.0,75,0.00,CLR,,0.00,WeatherDisplay:10.37,2013-07-26 14:48:00,
2013-07-26 09:53:00,73.8,65.3,30.02,North,1,0.0,0.0,75,0.00,CLR,,0.00,WeatherDisplay:10.37,2013-07-26 14:53:00,
2013-07-26 09:58:00,73.6,65.2,30.02,North,1,0.0,0.0,75,0.00,CLR,,0.00,WeatherDisplay:10.37,2013-07-26 14:58:00,
2013-07-26 10:03:00,73.8,65.3,30.02,North,1,0.0,0.0,75,0.00,CLR,,0.00,WeatherDisplay:10.37,2013-07-26 15:03:00,
2013-07-26 10:08:00,73.8,65.3,30.02,North,1,0.0,0.0,75,0.00,CLR,,0.00,WeatherDisplay:10.37,2013-07-26 15:08:00,
2013-07-26 10:13:00,74.1,65.3,30.02,North,1,0.0,0.0,74,0.00,CLR,,0.00,WeatherDisplay:10.37,2013-07-26 15:13:00,
2013-07-26 10:18:00,74.1,65.3,30.03,North,1,0.0,0.0,74,0.00,CLR,,0.00,WeatherDisplay:10.37,2013-07-26 15:18:00,
2013-07-26 10:23:00,74.1,65.3,30.03,North,1,0.0,0.0,74,0.00,CLR,,0.00,WeatherDisplay:10.37,2013-07-26 15:23:00,
2013-07-26 10:28:00,74.1,65.3,30.03,North,1,0.0,0.0,74,0.00,CLR,,0.00,WeatherDisplay:10.37,2013-07-26 15:28:00,
2013-07-26 10:33:00,74.1,65.3,30.03,North,1,0.0,0.0,74,0.00,CLR,,0.00,WeatherDisplay:10.37,2013-07-26 15:33:00,
2013-07-26 10:38:00,74.3,65.1,30.03,North,1,0.0,0.0,73,0.00,CLR,,0.00,WeatherDisplay:10.37,2013-07-26 15:38:00,
2013-07-26 10:43:00,74.3,65.1,30.04,North,1,0.0,0.0,73,0.00,CLR,,0.00,WeatherDisplay:10.37,2013-07-26 15:43:00,
2013-07-26 10:48:00,74.5,65.3,30.04,North,1,0.0,0.0,73,0.00,CLR,,0.00,WeatherDisplay:10.37,2013-07-26 15:48:00,
2013-07-26 10:53:00,74.5,64.9,30.03,North,1,0.0,0.0,72,0.00,CLR,,0.00,WeatherDisplay:10.37,2013-07-26 15:53:00,
2013-07-26 10:58:00,74.7,65.0,30.03,North,1,0.0,0.0,72,0.00,CLR,,0.00,WeatherDisplay:10.37,2013-07-26 15:58:00,
2013-07-26 11:03:00,74.7,65.0,30.03,North,1,0.0,0.0,72,0.00,CLR,,0.00,WeatherDisplay:10.37,2013-07-26 16:03:00,
2013-07-26 11:08:00,74.7,65.0,30.03,North,1,0.0,0.0,72,0.00,CLR,,0.00,WeatherDisplay:10.37,2013-07-26 16:08:00,
2013-07-26 11:13:00,74.8,65.2,30.03,North,1,0.0,0.0,72,0.00,CLR,,0.00,WeatherDisplay:10.37,2013-07-26 16:13:00,
2013-07-26 11:18:00,75.0,65.4,30.03,North,1,0.0,0.0,72,0.00,CLR,,0.00,WeatherDisplay:10.37,2013-07-26 16:18:00,
2013-07-26 11:23:00,75.4,65.7,30.03,North,1,0.0,0.0,72,0.00,CLR,,0.00,WeatherDisplay:10.37,2013-07-26 16:23:00,
2013-07-26 11:28:00,75.6,65.5,30.03,North,1,0.0,0.0,71,0.00,CLR,,0.00,WeatherDisplay:10.37,2013-07-26 16:28:00,
2013-07-26 11:33:00,76.1,66.0,30.03,North,1,0.0,0.0,71,0.00,CLR,,0.00,WeatherDisplay:10.37,2013-07-26 16:33:00,
2013-07-26 11:38:00,76.6,66.5,30.03,North,1,0.0,0.0,71,0.00,CLR,,0.00,WeatherDisplay:10.37,2013-07-26 16:38:00,
2013-07-26 11:43:00,76.6,66.5,30.04,North,1,0.0,0.0,71,0.00,CLR,,0.00,WeatherDisplay:10.37,2013-07-26 16:43:00,
2013-07-26 11:48:00,78.1,67.1,30.04,North,1,0.0,0.0,69,0.00,CLR,,0.00,WeatherDisplay:10.37,2013-07-26 16:48:00,
2013-07-26 11:53:00,78.6,67.2,30.03,North,1,0.0,0.0,68,0.00,CLR,,0.00,WeatherDisplay:10.37,2013-07-26 16:53:00,
2013-07-26 11:58:00,79.7,68.2,30.03,North,1,0.0,0.0,68,0.00,CLR,,0.00,WeatherDisplay:10.37,2013-07-26 16:58:00,
2013-07-26 12:03:00,80.4,68.0,30.03,North,1,0.0,0.0,66,0.00,CLR,,0.00,WeatherDisplay:10.37,2013-07-26 17:03:00,
2013-07-26 12:08:00,81.7,68.8,30.03,North,1,0.0,0.0,65,0.00,CLR,,0.00,WeatherDisplay:10.37,2013-07-26 17:08:00,
2013-07-26 12:13:00,82.4,69.0,30.03,North,1,0.0,0.0,64,0.00,CLR,,0.00,WeatherDisplay:10.37,2013-07-26 17:13:00,
2013-07-26 12:18:00,82.8,68.9,30.03,North,1,0.0,0.0,63,0.00,CLR,,0.00,WeatherDisplay:10.37,2013-07-26 17:18:00,
2013-07-26 12:23:00,83.3,68.9,30.03,North,1,0.0,0.0,62,0.00,CLR,,0.00,WeatherDisplay:10.37,2013-07-26 17:23:00,
2013-07-26 12:28:00,83.7,68.8,30.03,North,1,0.0,0.0,61,0.00,CLR,,0.00,WeatherDisplay:10.37,2013-07-26 17:28:00,
2013-07-26 12:33:00,84.0,68.6,30.03,North,1,0.0,0.0,60,0.00,CLR,,0.00,WeatherDisplay:10.37,2013-07-26 17:33:00,
2013-07-26 12:38:00,84.0,68.6,30.03,North,1,0.0,0.0,60,0.00,CLR,,0.00,WeatherDisplay:10.37,2013-07-26 17:38:00,
2013-07-26 12:43:00,84.4,69.0,30.03,North,1,0.0,0.0,60,0.00,CLR,,0.00,WeatherDisplay:10.37,2013-07-26 17:43:00,
2013-07-26 12:48:00,84.4,68.5,30.03,North,1,0.0,0.0,59,0.00,CLR,,0.00,WeatherDisplay:10.37,2013-07-26 17:48:00,
2013-07-26 12:53:00,83.5,67.6,30.03,North,1,0.0,0.0,59,0.00,CLR,,0.00,WeatherDisplay:10.37,2013-07-26 17:53:00,
2013-07-26 12:58:00,83.3,67.5,30.03,North,1,0.0,0.0,59,0.00,CLR,,0.00,WeatherDisplay:10.37,2013-07-26 17:58:00,
2013-07-26 13:03:00,82.8,67.5,30.02,North,1,0.0,0.0,60,0.00,CLR,,0.00,WeatherDisplay:10.37,2013-07-26 18:03:00,
2013-07-26 13:08:00,82.8,67.5,30.02,North,1,0.0,0.0,60,0.00,CLR,,0.00,WeatherDisplay:10.37,2013-07-26 18:08:00,
2013-07-26 13:13:00,83.8,69.0,30.02,North,1,0.0,0.0,61,0.00,CLR,,0.00,WeatherDisplay:10.37,2013-07-26 18:13:00,
2013-07-26 13:18:00,85.3,68.8,30.02,North,1,0.0,0.0,58,0.00,CLR,,0.00,WeatherDisplay:10.37,2013-07-26 18:18:00,
2013-07-26 13:23:00,85.5,68.5,30.02,North,1,0.0,0.0,57,0.00,CLR,,0.00,WeatherDisplay:10.37,2013-07-26 18:23:00,
2013-07-26 13:28:00,85.5,68.5,30.02,North,1,0.0,0.0,57,0.00,CLR,,0.00,WeatherDisplay:10.37,2013-07-26 18:28:00,
2013-07-26 13:33:00,86.4,68.8,30.01,North,1,0.0,0.0,56,0.00,CLR,,0.00,WeatherDisplay:10.37,2013-07-26 18:33:00,
2013-07-26 13:38:00,87.3,70.2,30.01,North,1,0.0,0.0,57,0.00,CLR,,0.00,WeatherDisplay:10.37,2013-07-26 18:38:00,
2013-07-26 13:43:00,87.6,70.0,30.01,North,1,0.0,0.0,56,0.00,CLR,,0.00,WeatherDisplay:10.37,2013-07-26 18:43:00,
2013-07-26 13:48:00,87.1,69.0,30.01,North,1,0.0,0.0,55,0.00,CLR,,0.00,WeatherDisplay:10.37,2013-07-26 18:48:00,
2013-07-26 13:53:00,86.4,68.8,30.01,North,1,0.0,0.0,56,0.00,CLR,,0.00,WeatherDisplay:10.37,2013-07-26 18:53:00,
2013-07-26 13:58:00,86.2,68.6,30.01,North,1,0.0,0.0,56,0.00,CLR,,0.00,WeatherDisplay:10.37,2013-07-26 18:58:00,
2013-07-26 14:03:00,86.7,69.7,30.00,North,1,0.0,0.0,57,0.00,CLR,,0.00,WeatherDisplay:10.37,2013-07-26 19:03:00,
2013-07-26 14:08:00,86.7,69.1,30.00,North,1,0.0,0.0,56,0.00,CLR,,0.00,WeatherDisplay:10.37,2013-07-26 19:08:00,
2013-07-26 14:13:00,86.7,68.6,30.00,North,1,0.0,0.0,55,0.00,CLR,,0.00,WeatherDisplay:10.37,2013-07-26 19:13:00,
2013-07-26 14:18:00,87.3,69.1,30.00,North,1,0.0,0.0,55,0.00,CLR,,0.00,WeatherDisplay:10.37,2013-07-26 19:18:00,
2013-07-26 14:23:00,88.0,69.8,30.00,North,1,0.0,0.0,55,0.00,CLR,,0.00,WeatherDisplay:10.37,2013-07-26 19:23:00,
2013-07-26 14:28:00,88.2,68.9,30.00,North,1,0.0,0.0,53,0.00,CLR,,0.00,WeatherDisplay:10.37,2013-07-26 19:28:00,
2013-07-26 14:33:00,88.3,68.5,30.00,North,1,0.0,0.0,52,0.00,CLR,,0.00,WeatherDisplay:10.37,2013-07-26 19:33:00,
2013-07-26 14:38:00,89.1,68.6,30.00,North,1,0.0,0.0,51,0.00,CLR,,0.00,WeatherDisplay:10.37,2013-07-26 19:38:00,
2013-07-26 14:43:00,89.4,68.9,29.99,North,1,0.0,0.0,51,0.00,CLR,,0.00,WeatherDisplay:10.37,2013-07-26 19:43:00,
2013-07-26 14:48:00,89.4,68.9,29.99,North,1,0.0,0.0,51,0.00,CLR,,0.00,WeatherDisplay:10.37,2013-07-26 19:48:00,
2013-07-26 14:53:00,88.9,67.2,29.99,North,1,0.0,0.0,49,0.00,CLR,,0.00,WeatherDisplay:10.37,2013-07-26 19:53:00,
2013-07-26 14:58:00,87.8,66.3,29.99,North,1,0.0,0.0,49,0.00,CLR,,0.00,WeatherDisplay:10.37,2013-07-26 19:58:00,
2013-07-26 15:03:00,88.0,67.0,29.99,North,1,0.0,0.0,50,0.00,CLR,,0.00,WeatherDisplay:10.37,2013-07-26 20:03:00,
2013-07-26 15:08:00,88.7,67.1,29.99,North,1,0.0,0.0,49,0.00,CLR,,0.00,WeatherDisplay:10.37,2013-07-26 20:08:00,
2013-07-26 15:13:00,88.7,67.1,29.99,North,1,0.0,0.0,49,0.00,CLR,,0.00,WeatherDisplay:10.37,2013-07-26 20:13:00,
2013-07-26 15:18:00,88.7,67.1,29.99,North,1,0.0,0.0,49,0.00,CLR,,0.00,WeatherDisplay:10.37,2013-07-26 20:18:00,
2013-07-26 15:23:00,88.7,65.9,29.99,North,1,0.0,0.0,47,0.00,CLR,,0.00,WeatherDisplay:10.37,2013-07-26 20:23:00,
2013-07-26 15:28:00,88.0,65.2,29.99,North,1,0.0,0.0,47,0.00,CLR,,0.00,WeatherDisplay:10.37,2013-07-26 20:28:00,
2013-07-26 15:33:00,88.0,65.8,29.99,North,1,0.0,0.0,48,0.00,CLR,,0.00,WeatherDisplay:10.37,2013-07-26 20:33:00,
2013-07-26 15:38:00,88.7,65.9,29.99,North,1,0.0,0.0,47,0.00,CLR,,0.00,WeatherDisplay:10.37,2013-07-26 20:38:00,
2013-07-26 15:43:00,88.7,65.9,29.99,North,1,0.0,0.0,47,0.00,CLR,,0.00,WeatherDisplay:10.37,2013-07-26 20:43:00,
2013-07-26 15:48:00,87.8,64.4,29.99,North,1,0.0,0.0,46,0.00,CLR,,0.00,WeatherDisplay:10.37,2013-07-26 20:48:00,
2013-07-26 15:53:00,88.0,64.6,29.99,North,1,0.0,0.0,46,0.00,CLR,,0.00,WeatherDisplay:10.37,2013-07-26 20:53:00,
2013-07-26 15:58:00,88.2,64.1,29.99,North,1,0.0,0.0,45,0.00,CLR,,0.00,WeatherDisplay:10.37,2013-07-26 20:58:00,
2013-07-26 16:03:00,88.0,64.0,29.98,North,1,0.0,0.0,45,0.00,CLR,,0.00,WeatherDisplay:10.37,2013-07-26 21:03:00,
2013-07-26 16:08:00,87.3,63.3,29.99,North,1,0.0,0.0,45,0.00,CLR,,0.00,WeatherDisplay:10.37,2013-07-26 21:08:00,
2013-07-26 16:13:00,87.3,64.0,29.99,North,1,0.0,0.0,46,0.00,CLR,,0.00,WeatherDisplay:10.37,2013-07-26 21:13:00,
2013-07-26 16:18:00,87.6,63.7,29.99,North,1,0.0,0.0,45,0.00,CLR,,0.00,WeatherDisplay:10.37,2013-07-26 21:18:00,
2013-07-26 16:23:00,88.0,63.3,29.99,North,1,0.0,0.0,44,0.00,CLR,,0.00,WeatherDisplay:10.37,2013-07-26 21:23:00,
2013-07-26 16:28:00,88.0,62.7,29.99,North,1,0.0,0.0,43,0.00,CLR,,0.00,WeatherDisplay:10.37,2013-07-26 21:28:00,
2013-07-26 16:33:00,87.6,61.7,29.99,North,1,0.0,0.0,42,0.00,CLR,,0.00,WeatherDisplay:10.37,2013-07-26 21:33:00,
2013-07-26 16:38:00,86.9,61.7,29.99,North,1,0.0,0.0,43,0.00,CLR,,0.00,WeatherDisplay:10.37,2013-07-26 21:38:00,
2013-07-26 16:43:00,85.8,61.4,29.99,North,1,0.0,0.0,44,0.00,CLR,,0.00,WeatherDisplay:10.37,2013-07-26 21:43:00,
2013-07-26 16:48:00,85.5,61.7,29.99,North,1,0.0,0.0,45,0.00,CLR,,0.00,WeatherDisplay:10.37,2013-07-26 21:48:00,
2013-07-26 16:53:00,86.2,63.0,29.99,North,1,0.0,0.0,46,0.00,CLR,,0.00,WeatherDisplay:10.37,2013-07-26 21:53:00,
2013-07-26 16:58:00,86.4,62.5,29.99,North,1,0.0,0.0,45,0.00,CLR,,0.00,WeatherDisplay:10.37,2013-07-26 21:58:00,
2013-07-26 17:03:00,86.5,62.7,29.99,North,1,0.0,0.0,45,0.00,CLR,,0.00,WeatherDisplay:10.37,2013-07-26 22:03:00,
2013-07-26 17:08:00,86.5,62.7,29.99,North,1,0.0,0.0,45,0.00,CLR,,0.00,WeatherDisplay:10.37,2013-07-26 22:08:00,
2013-07-26 17:13:00,86.4,61.9,29.99,North,1,0.0,0.0,44,0.00,CLR,,0.00,WeatherDisplay:10.37,2013-07-26 22:13:00,
2013-07-26 17:18:00,86.4,61.9,29.99,North,1,0.0,0.0,44,0.00,CLR,,0.00,WeatherDisplay:10.37,2013-07-26 22:18:00,
2013-07-26 17:23:00,86.2,62.3,30.00,North,1,0.0,0.0,45,0.00,CLR,,0.00,WeatherDisplay:10.37,2013-07-26 22:23:00,
2013-07-26 17:28:00,85.8,61.4,30.00,North,1,0.0,0.0,44,0.00,CLR,,0.00,WeatherDisplay:10.37,2013-07-26 22:28:00,
2013-07-26 17:33:00,85.8,61.4,29.99,North,1,0.0,0.0,44,0.00,CLR,,0.00,WeatherDisplay:10.37,2013-07-26 22:33:00,
2013-07-26 17:38:00,85.6,61.2,29.99,North,1,0.0,0.0,44,0.00,CLR,,0.00,WeatherDisplay:10.37,2013-07-26 22:38:00,
2013-07-26 17:43:00,85.6,61.2,29.99,North,1,0.0,0.0,44,0.00,CLR,,0.00,WeatherDisplay:10.37,2013-07-26 22:43:00,
2013-07-26 17:48:00,85.3,60.3,29.99,North,1,0.0,0.0,43,0.00,CLR,,0.00,WeatherDisplay:10.37,2013-07-26 22:48:00,
2013-07-26 17:53:00,85.3,60.9,29.99,North,1,0.0,0.0,44,0.00,CLR,,0.00,WeatherDisplay:10.37,2013-07-26 22:53:00,
2013-07-26 17:58:00,85.3,60.9,29.99,North,1,0.0,0.0,44,0.00,CLR,,0.00,WeatherDisplay:10.37,2013-07-26 22:58:00,
2013-07-26 18:03:00,85.5,61.1,29.99,North,1,0.0,0.0,44,0.00,CLR,,0.00,WeatherDisplay:10.37,2013-07-26 23:03:00,
2013-07-26 18:08:00,85.3,60.9,29.99,North,1,0.0,0.0,44,0.00,CLR,,0.00,WeatherDisplay:10.37,2013-07-26 23:08:00,
2013-07-26 18:13:00,85.1,60.7,29.99,North,1,0.0,0.0,44,0.00,CLR,,0.00,WeatherDisplay:10.37,2013-07-26 23:13:00,
2013-07-26 18:18:00,84.6,60.9,29.99,North,1,0.0,0.0,45,0.00,CLR,,0.00,WeatherDisplay:10.37,2013-07-26 23:18:00,
2013-07-26 18:23:00,84.0,60.4,29.99,North,1,0.0,0.0,45,0.00,CLR,,0.00,WeatherDisplay:10.37,2013-07-26 23:23:00,
2013-07-26 18:28:00,83.5,60.5,29.99,North,1,0.0,0.0,46,0.00,CLR,,0.00,WeatherDisplay:10.37,2013-07-26 23:28:00,
2013-07-26 18:33:00,83.3,60.4,29.99,North,1,0.0,0.0,46,0.00,CLR,,0.00,WeatherDisplay:10.37,2013-07-26 23:33:00,
2013-07-26 18:38:00,83.1,60.2,29.99,North,1,0.0,0.0,46,0.00,CLR,,0.00,WeatherDisplay:10.37,2013-07-26 23:38:00,
2013-07-26 18:43:00,82.8,60.5,29.99,North,1,0.0,0.0,47,0.00,CLR,,0.00,WeatherDisplay:10.37,2013-07-26 23:43:00,
2013-07-26 18:48:00,82.8,60.5,29.99,North,1,0.0,0.0,47,0.00,CLR,,0.00,WeatherDisplay:10.37,2013-07-26 23:48:00,
2013-07-26 18:53:00,82.8,60.5,29.99,North,1,0.0,0.0,47,0.00,CLR,,0.00,WeatherDisplay:10.37,2013-07-26 23:53:00,
2013-07-26 18:58:00,82.8,60.5,29.99,North,1,0.0,0.0,47,0.00,CLR,,0.00,WeatherDisplay:10.37,2013-07-26 23:58:00,
2013-07-26 19:03:00,82.2,60.0,29.99,North,1,0.0,0.0,47,0.00,CLR,,0.00,WeatherDisplay:10.37,2013-07-27 00:03:00,
2013-07-26 19:08:00,82.2,60.6,29.99,North,1,0.0,0.0,48,0.00,CLR,,0.00,WeatherDisplay:10.37,2013-07-27 00:08:00,
2013-07-26 19:13:00,82.0,60.4,29.99,North,1,0.0,0.0,48,0.00,CLR,,0.00,WeatherDisplay:10.37,2013-07-27 00:13:00,
2013-07-26 19:18:00,81.7,60.1,29.99,North,1,0.0,0.0,48,0.00,CLR,,0.00,WeatherDisplay:10.37,2013-07-27 00:18:00,
2013-07-26 19:23:00,81.5,59.9,29.99,North,1,0.0,0.0,48,0.00,CLR,,0.00,WeatherDisplay:10.37,2013-07-27 00:23:00,
2013-07-26 19:28:00,81.3,59.8,29.99,North,1,0.0,0.0,48,0.00,CLR,,0.00,WeatherDisplay:10.37,2013-07-27 00:28:00,
2013-07-26 19:33:00,80.8,59.3,29.99,North,1,0.0,0.0,48,0.00,CLR,,0.00,WeatherDisplay:10.37,2013-07-27 00:33:00,
2013-07-26 19:38:00,80.6,59.1,29.99,North,1,0.0,0.0,48,0.00,CLR,,0.00,WeatherDisplay:10.37,2013-07-27 00:38:00,
2013-07-26 19:43:00,80.2,58.8,29.99,North,1,0.0,0.0,48,0.00,CLR,,0.00,WeatherDisplay:10.37,2013-07-27 00:43:00,
2013-07-26 19:48:00,80.1,59.2,29.99,North,1,0.0,0.0,49,0.00,CLR,,0.00,WeatherDisplay:10.37,2013-07-27 00:48:00,
2013-07-26 19:53:00,79.5,58.7,29.99,North,1,0.0,0.0,49,0.00,CLR,,0.00,WeatherDisplay:10.37,2013-07-27 00:53:00,
2013-07-26 19:58:00,79.3,58.5,29.99,North,1,0.0,0.0,49,0.00,CLR,,0.00,WeatherDisplay:10.37,2013-07-27 00:58:00,
2013-07-26 20:03:00,79.0,58.8,29.99,North,1,0.0,0.0,50,0.00,CLR,,0.00,WeatherDisplay:10.37,2013-07-27 01:03:00,
2013-07-26 20:08:00,78.8,58.6,29.99,North,1,0.0,0.0,50,0.00,CLR,,0.00,WeatherDisplay:10.37,2013-07-27 01:08:00,
2013-07-26 20:13:00,78.4,58.3,29.99,North,1,0.0,0.0,50,0.00,CLR,,0.00,WeatherDisplay:10.37,2013-07-27 01:13:00,
2013-07-26 20:18:00,77.9,57.8,29.99,North,1,0.0,0.0,50,0.00,CLR,,0.00,WeatherDisplay:10.37,2013-07-27 01:18:00,
2013-07-26 20:23:00,77.7,58.1,29.99,North,1,0.0,0.0,51,0.00,CLR,,0.00,WeatherDisplay:10.37,2013-07-27 01:23:00,
2013-07-26 20:28:00,77.4,57.8,29.99,North,1,0.0,0.0,51,0.00,CLR,,0.00,WeatherDisplay:10.37,2013-07-27 01:28:00,
2013-07-26 20:33:00,76.8,57.9,29.99,North,1,0.0,0.0,52,0.00,CLR,,0.00,WeatherDisplay:10.37,2013-07-27 01:33:00,
2013-07-26 20:38:00,76.6,57.7,29.99,North,1,0.0,0.0,52,0.00,CLR,,0.00,WeatherDisplay:10.37,2013-07-27 01:38:00,
2013-07-26 20:43:00,76.6,57.7,29.99,North,1,0.0,0.0,52,0.00,CLR,,0.00,WeatherDisplay:10.37,2013-07-27 01:43:00,
2013-07-26 20:48:00,76.6,58.2,30.00,North,1,0.0,0.0,53,0.00,CLR,,0.00,WeatherDisplay:10.37,2013-07-27 01:48:00,
2013-07-26 20:53:00,75.6,57.2,30.00,North,1,0.0,0.0,53,0.00,CLR,,0.00,WeatherDisplay:10.37,2013-07-27 01:53:00,
2013-07-26 20:58:00,75.4,57.6,30.00,North,1,0.0,0.0,54,0.00,CLR,,0.00,WeatherDisplay:10.37,2013-07-27 01:58:00,
2013-07-26 21:03:00,75.0,57.2,30.01,North,1,0.0,0.0,54,0.00,CLR,,0.00,WeatherDisplay:10.37,2013-07-27 02:03:00,
2013-07-26 21:08:00,74.8,57.1,30.01,North,1,0.0,0.0,54,0.00,CLR,,0.00,WeatherDisplay:10.37,2013-07-27 02:08:00,
2013-07-26 21:13:00,74.7,57.4,30.01,North,1,0.0,0.0,55,0.00,CLR,,0.00,WeatherDisplay:10.37,2013-07-27 02:13:00,
2013-07-26 21:18:00,74.1,56.9,30.01,North,1,0.0,0.0,55,0.00,CLR,,0.00,WeatherDisplay:10.37,2013-07-27 02:18:00,
2013-07-26 21:23:00,73.9,56.8,30.01,North,1,0.0,0.0,55,0.00,CLR,,0.00,WeatherDisplay:10.37,2013-07-27 02:23:00,
2013-07-26 21:28:00,73.8,56.6,30.01,North,1,0.0,0.0,55,0.00,CLR,,0.00,WeatherDisplay:10.37,2013-07-27 02:28:00,
2013-07-26 21:33:00,73.2,56.1,30.01,North,1,0.0,0.0,55,0.00,CLR,,0.00,WeatherDisplay:10.37,2013-07-27 02:33:00,
2013-07-26 21:38:00,73.0,55.9,30.01,North,1,0.0,0.0,55,0.00,CLR,,0.00,WeatherDisplay:10.37,2013-07-27 02:38:00,
2013-07-26 21:43:00,72.9,55.7,30.01,North,1,0.0,0.0,55,0.00,CLR,,0.00,WeatherDisplay:10.37,2013-07-27 02:43:00,
2013-07-26 21:48:00,72.7,55.6,30.02,North,1,0.0,0.0,55,0.00,CLR,,0.00,WeatherDisplay:10.37,2013-07-27 02:48:00,
2013-07-26 21:53:00,72.3,54.7,30.03,North,1,0.0,0.0,54,0.00,CLR,,0.00,WeatherDisplay:10.37,2013-07-27 02:53:00,
2013-07-26 21:58:00,72.0,54.4,30.02,North,1,0.0,0.0,54,0.00,CLR,,0.00,WeatherDisplay:10.37,2013-07-27 02:58:00,
2013-07-26 22:03:00,71.6,54.1,30.03,North,1,0.0,0.0,54,0.00,CLR,,0.00,WeatherDisplay:10.37,2013-07-27 03:03:00,
2013-07-26 22:08:00,71.4,53.9,30.02,North,1,0.0,0.0,54,0.00,CLR,,0.00,WeatherDisplay:10.37,2013-07-27 03:08:00,
2013-07-26 22:13:00,71.1,53.6,30.02,North,1,0.0,0.0,54,0.00,CLR,,0.00,WeatherDisplay:10.37,2013-07-27 03:13:00,
2013-07-26 22:18:00,70.9,52.9,30.02,North,1,0.0,0.0,53,0.00,CLR,,0.00,WeatherDisplay:10.37,2013-07-27 03:18:00,
2013-07-26 22:23:00,70.9,52.9,30.03,North,1,0.0,0.0,53,0.00,CLR,,0.00,WeatherDisplay:10.37,2013-07-27 03:23:00,
2013-07-26 22:28:00,70.9,52.9,30.03,North,1,0.0,0.0,53,0.00,CLR,,0.00,WeatherDisplay:10.37,2013-07-27 03:28:00,
2013-07-26 22:33:00,70.9,52.9,30.03,North,1,0.0,0.0,53,0.00,CLR,,0.00,WeatherDisplay:10.37,2013-07-27 03:33:00,
2013-07-26 22:38:00,70.2,52.2,30.03,North,1,0.0,0.0,53,0.00,CLR,,0.00,WeatherDisplay:10.37,2013-07-27 03:38:00,
2013-07-26 22:43:00,70.0,52.1,30.03,North,1,0.0,0.0,53,0.00,CLR,,0.00,WeatherDisplay:10.37,2013-07-27 03:43:00,
2013-07-26 22:48:00,69.8,51.9,30.03,North,1,0.0,0.0,53,0.00,CLR,,0.00,WeatherDisplay:10.37,2013-07-27 03:48:00,
2013-07-26 22:53:00,69.6,52.2,30.03,North,1,0.0,0.0,54,0.00,CLR,,0.00,WeatherDisplay:10.37,2013-07-27 03:53:00,
2013-07-26 22:58:00,69.4,52.1,30.03,North,1,0.0,0.0,54,0.00,CLR,,0.00,WeatherDisplay:10.37,2013-07-27 03:58:00,
2013-07-26 23:01:00,69.3,51.9,30.03,North,1,0.0,0.0,54,0.00,CLR,,0.00,WeatherDisplay:10.37,2013-07-27 04:01:00,
2013-07-26 23:07:00,69.1,51.7,30.03,North,1,0.0,0.0,54,0.00,CLR,,0.00,WeatherDisplay:10.37,2013-07-27 04:07:00,
2013-07-26 23:12:00,68.7,51.9,30.04,North,1,0.0,0.0,55,0.00,CLR,,0.00,WeatherDisplay:10.37,2013-07-27 04:12:00,
2013-07-26 23:17:00,68.4,51.6,30.04,North,1,0.0,0.0,55,0.00,CLR,,0.00,WeatherDisplay:10.37,2013-07-27 04:17:00,
2013-07-26 23:22:00,68.2,51.4,30.04,North,1,0.0,0.0,55,0.00,CLR,,0.00,WeatherDisplay:10.37,2013-07-27 04:22:00,
2013-07-26 23:27:00,67.8,51.1,30.04,North,1,0.0,0.0,55,0.00,CLR,,0.00,WeatherDisplay:10.37,2013-07-27 04:27:00,
2013-07-26 23:32:00,67.8,51.5,30.04,North,1,0.0,0.0,56,0.00,CLR,,0.00,WeatherDisplay:10.37,2013-07-27 04:32:00,
2013-07-26 23:37:00,67.5,51.2,30.04,North,1,0.0,0.0,56,0.00,CLR,,0.00,WeatherDisplay:10.37,2013-07-27 04:37:00,
2013-07-26 23:42:00,67.3,51.0,30.04,North,1,0.0,0.0,56,0.00,CLR,,0.00,WeatherDisplay:10.37,2013-07-27 04:42:00,
2013-07-26 23:47:00,67.1,51.4,30.04,North,1,0.0,0.0,57,0.00,CLR,,0.00,WeatherDisplay:10.37,2013-07-27 04:47:00,
2013-07-26 23:52:00,66.6,50.8,30.04,North,1,0.0,0.0,57,0.00,CLR,,0.00,WeatherDisplay:10.37,2013-07-27 04:52:00,
2013-07-26 23:57:00,66.4,51.2,30.04,North,1,0.0,0.0,58,0.00,CLR,,0.00,WeatherDisplay:10.37,2013-07-27 04:57:00,